UATG/GUW METAR and TAF weather

Enter ICAO airport designator
Station Type Date Time Source
UATG METAR 2020/04/03 22:00 UTC NOAA

UATG 032200Z 27005MPS 5000 BR SCT033CB 03/00 Q1015 R32/29//60 NOSIG RMK QFE763/1017


Station Type Date Time Source
UATG Decoded METAR 2020/04/03 22:00 UTC NOAA

Station name not available
Apr 03, 2020 - 06:00 PM EDT / 2020.04.03 2200 UTC
Wind: from the W (270 degrees) at 11 MPH (10 KT):0
Visibility: 3 mile(s):0
Sky conditions: partly cloudy
Weather: mist; Cumulonimbus clouds observed
Temperature: 37 F (3 C)
Dew Point: 32 F (0 C)
Relative Humidity: 80%
Pressure (altimeter): 29.97 in. Hg (1015 hPa)
ob: UATG 032200Z 27005MPS 5000 BR SCT033CB 03/00 Q1015 R32/29//60 NOSIG RMK QFE763/1017
cycle: 22

Station Type Date Time Source
UATG TAF 2020/04/03 18:21 UTC NOAA

TAF UATG 031700Z 0318/0418 29008MPS 3100 BR BKN020CB TX15/0411Z TN02/0404Z
BECMG 0405/0406 9999 NSW SCT033CB

Example: see airport list